createdAt,value
2024-04-14T00:00:04.428Z,61
2024-04-14T00:02:03.638Z,62
2024-04-14T00:04:03.765Z,61
2024-04-14T00:06:03.674Z,62
2024-04-14T00:08:03.644Z,62
2024-04-14T00:10:03.720Z,62
2024-04-14T00:12:03.725Z,61
2024-04-14T00:14:03.679Z,62
2024-04-14T00:16:03.671Z,62
2024-04-14T00:18:03.778Z,62
2024-04-14T00:20:03.790Z,62
2024-04-14T00:24:03.674Z,62
2024-04-14T00:26:03.710Z,62
2024-04-14T00:28:03.719Z,62
2024-04-14T00:30:03.650Z,63
2024-04-14T00:32:03.670Z,63
2024-04-14T00:34:03.729Z,63
2024-04-14T00:36:03.666Z,63
2024-04-14T00:38:03.678Z,64
2024-04-14T00:40:03.757Z,64
2024-04-14T00:42:03.686Z,64
2024-04-14T00:44:03.663Z,64
2024-04-14T00:46:03.639Z,65
2024-04-14T00:48:03.736Z,65
2024-04-14T00:50:03.678Z,65
2024-04-14T00:52:03.689Z,65
2024-04-14T00:54:03.667Z,65
2024-04-14T00:56:03.657Z,66
2024-04-14T00:58:03.796Z,65
2024-04-14T01:02:06.261Z,65
2024-04-14T01:04:03.735Z,66
2024-04-14T01:06:03.658Z,65
2024-04-14T01:08:03.666Z,65
2024-04-14T01:10:03.807Z,66
2024-04-14T01:12:03.681Z,65
2024-04-14T01:14:03.690Z,66
2024-04-14T01:16:03.698Z,66
2024-04-14T01:18:04.004Z,67
2024-04-14T01:20:03.708Z,66
2024-04-14T01:22:03.733Z,67
2024-04-14T01:24:03.648Z,67
2024-04-14T01:26:04.053Z,67
2024-04-14T01:28:03.684Z,67
2024-04-14T01:30:03.617Z,68
2024-04-14T01:32:03.689Z,68
2024-04-14T01:34:03.683Z,68
2024-04-14T01:36:03.648Z,68
2024-04-14T01:38:08.893Z,68
2024-04-14T01:40:03.746Z,68
2024-04-14T01:42:03.707Z,69
2024-04-14T01:44:03.642Z,69
2024-04-14T01:46:03.710Z,69
2024-04-14T01:48:03.699Z,69
2024-04-14T01:50:03.673Z,69
2024-04-14T01:54:03.672Z,70
2024-04-14T01:56:03.659Z,70
2024-04-14T01:58:03.711Z,70
2024-04-14T02:00:03.674Z,70
2024-04-14T02:04:03.889Z,70
2024-04-14T02:06:03.821Z,69
2024-04-14T02:08:03.663Z,70
2024-04-14T02:10:03.776Z,70
2024-04-14T02:12:03.656Z,70
2024-04-14T02:14:03.675Z,70
2024-04-14T02:16:03.649Z,69
2024-04-14T02:18:03.877Z,69
2024-04-14T02:22:03.793Z,70
2024-04-14T02:24:03.685Z,70
2024-04-14T02:28:03.700Z,70
2024-04-14T02:30:03.675Z,70
2024-04-14T02:32:03.665Z,70
2024-04-14T02:34:03.696Z,71
2024-04-14T02:38:03.658Z,70
2024-04-14T02:40:03.665Z,70
2024-04-14T02:42:03.654Z,71
2024-04-14T02:44:03.651Z,71
2024-04-14T02:46:03.760Z,71
2024-04-14T02:48:03.851Z,71
2024-04-14T02:50:03.657Z,71
2024-04-14T02:52:03.714Z,71
2024-04-14T02:54:03.633Z,72
2024-04-14T02:56:03.626Z,72
2024-04-14T02:58:03.707Z,72
2024-04-14T03:00:03.698Z,73
2024-04-14T03:02:03.744Z,73
2024-04-14T03:04:03.752Z,73
2024-04-14T03:06:03.629Z,73
2024-04-14T03:08:03.668Z,73
2024-04-14T03:10:03.751Z,73
2024-04-14T03:12:03.942Z,73
2024-04-14T03:14:03.696Z,73
2024-04-14T03:16:03.822Z,73
2024-04-14T03:18:03.703Z,73
2024-04-14T03:20:03.715Z,73
2024-04-14T03:22:03.732Z,74
2024-04-14T03:24:03.656Z,74
2024-04-14T03:26:03.704Z,74
2024-04-14T03:28:04.478Z,74
2024-04-14T03:30:03.679Z,74
2024-04-14T03:32:03.724Z,75
2024-04-14T03:34:03.719Z,74
2024-04-14T03:36:03.732Z,74
2024-04-14T03:38:03.613Z,74
2024-04-14T03:40:03.821Z,75
2024-04-14T03:42:03.761Z,75
2024-04-14T03:44:03.700Z,75
2024-04-14T03:46:04.113Z,75
2024-04-14T03:48:03.765Z,75
2024-04-14T03:50:03.729Z,75
2024-04-14T03:52:03.692Z,74
2024-04-14T03:54:03.664Z,75
2024-04-14T03:56:03.695Z,74
2024-04-14T03:58:03.762Z,74
2024-04-14T04:00:03.696Z,74
2024-04-14T04:02:03.678Z,74
2024-04-14T04:08:05.869Z,74
2024-04-14T04:10:03.768Z,74
2024-04-14T04:12:03.736Z,75
2024-04-14T04:14:03.668Z,75
2024-04-14T04:16:03.720Z,75
2024-04-14T04:18:03.745Z,75
2024-04-14T04:20:03.698Z,75
2024-04-14T04:22:03.763Z,75
2024-04-14T04:24:03.711Z,76
2024-04-14T04:26:03.688Z,75
2024-04-14T04:28:03.703Z,76
2024-04-14T04:30:03.714Z,76
2024-04-14T04:32:03.711Z,76
2024-04-14T04:34:03.857Z,75
2024-04-14T04:36:03.669Z,75
2024-04-14T04:38:03.712Z,75
2024-04-14T04:40:03.990Z,76
2024-04-14T04:42:03.729Z,75
2024-04-14T04:44:03.722Z,75
2024-04-14T04:50:03.655Z,76
2024-04-14T04:52:03.732Z,75
2024-04-14T04:56:03.717Z,75
2024-04-14T04:58:03.789Z,75
2024-04-14T05:00:04.069Z,75
2024-04-14T05:02:03.836Z,74
2024-04-14T05:04:03.699Z,74
2024-04-14T05:10:03.798Z,74
2024-04-14T05:12:03.739Z,74
2024-04-14T05:14:03.842Z,74
2024-04-14T05:16:03.797Z,75
2024-04-14T05:18:03.721Z,74
2024-04-14T05:20:03.643Z,74
2024-04-14T05:22:03.744Z,74
2024-04-14T05:24:03.702Z,74
2024-04-14T05:26:03.745Z,74
2024-04-14T05:28:03.790Z,74
2024-04-14T05:30:03.679Z,74
2024-04-14T05:32:03.759Z,74
2024-04-14T05:34:03.820Z,74
2024-04-14T05:36:03.688Z,74
2024-04-14T05:38:03.681Z,74
2024-04-14T05:40:03.831Z,74
2024-04-14T05:42:03.788Z,73
2024-04-14T05:44:03.794Z,73
2024-04-14T05:46:03.945Z,73
2024-04-14T05:48:03.779Z,73
2024-04-14T05:50:03.781Z,73
2024-04-14T05:52:03.726Z,72
2024-04-14T05:54:03.772Z,71
2024-04-14T05:58:03.686Z,71
2024-04-14T06:00:03.821Z,71
2024-04-14T06:02:03.728Z,70
2024-04-14T06:04:03.938Z,71
2024-04-14T06:06:03.691Z,70
2024-04-14T06:08:03.707Z,69
2024-04-14T06:10:03.804Z,70
2024-04-14T06:12:03.695Z,69
2024-04-14T06:14:03.761Z,68
2024-04-14T06:18:03.705Z,65
2024-04-14T06:22:03.740Z,64
2024-04-14T06:26:03.660Z,62
2024-04-14T06:28:03.696Z,62
2024-04-14T06:30:03.740Z,63
2024-04-14T06:32:03.689Z,62
2024-04-14T06:34:03.679Z,63
2024-04-14T06:36:03.709Z,62
2024-04-14T06:38:03.701Z,63
2024-04-14T06:40:03.753Z,63
2024-04-14T06:42:03.736Z,63
2024-04-14T06:44:03.702Z,62
2024-04-14T06:46:03.815Z,63
2024-04-14T06:48:03.751Z,62
2024-04-14T06:50:03.695Z,62
2024-04-14T06:52:03.850Z,62
2024-04-14T06:56:03.756Z,62
2024-04-14T06:58:03.786Z,62
2024-04-14T07:00:03.825Z,62
2024-04-14T07:02:04.017Z,63
2024-04-14T07:04:03.771Z,63
2024-04-14T07:06:03.688Z,61
2024-04-14T07:08:03.684Z,62
2024-04-14T07:10:03.734Z,62
2024-04-14T07:12:03.779Z,62
2024-04-14T07:14:03.716Z,62
2024-04-14T07:16:03.998Z,61
2024-04-14T07:18:03.959Z,61
2024-04-14T07:20:03.690Z,61
2024-04-14T07:22:03.757Z,61
2024-04-14T07:24:03.856Z,60
2024-04-14T07:26:05.006Z,61
2024-04-14T07:28:03.711Z,61
2024-04-14T07:30:03.714Z,60
2024-04-14T07:32:04.027Z,61
2024-04-14T07:34:03.765Z,61
2024-04-14T07:36:03.724Z,60
2024-04-14T07:38:03.657Z,60
2024-04-14T07:40:03.772Z,61
2024-04-14T07:42:03.777Z,61
2024-04-14T07:44:03.746Z,60
2024-04-14T07:46:03.844Z,60
2024-04-14T07:48:03.846Z,60
2024-04-14T07:50:03.705Z,60
2024-04-14T07:52:03.726Z,60
2024-04-14T07:54:03.726Z,60
2024-04-14T07:56:03.700Z,60
2024-04-14T07:58:03.727Z,60
2024-04-14T08:00:03.825Z,60
2024-04-14T08:02:03.828Z,60
2024-04-14T08:04:03.839Z,61
2024-04-14T08:06:03.682Z,60
2024-04-14T08:08:03.652Z,59
2024-04-14T08:10:04.033Z,60
2024-04-14T08:12:03.717Z,59
2024-04-14T08:14:03.722Z,59
2024-04-14T08:16:03.732Z,59
2024-04-14T08:18:03.718Z,58
2024-04-14T08:20:03.735Z,59
2024-04-14T08:22:03.731Z,59
2024-04-14T08:24:03.686Z,59
2024-04-14T08:26:03.722Z,59
2024-04-14T08:28:03.726Z,59
2024-04-14T08:30:03.720Z,59
2024-04-14T08:32:03.860Z,58
2024-04-14T08:34:06.182Z,57
2024-04-14T08:36:03.818Z,58
2024-04-14T08:38:03.722Z,57
2024-04-14T08:40:03.835Z,58
2024-04-14T08:42:03.741Z,57
2024-04-14T08:44:03.717Z,58
2024-04-14T08:46:03.748Z,58
2024-04-14T08:48:03.763Z,58
2024-04-14T08:52:03.940Z,59
2024-04-14T08:54:03.905Z,58
2024-04-14T08:56:03.682Z,58
2024-04-14T08:58:03.754Z,58
2024-04-14T09:00:03.931Z,58
2024-04-14T09:02:03.742Z,57
2024-04-14T09:04:03.798Z,57
2024-04-14T09:06:03.786Z,58
2024-04-14T09:10:03.810Z,58
2024-04-14T09:12:03.752Z,58
2024-04-14T09:16:03.769Z,59
2024-04-14T09:20:03.725Z,58
2024-04-14T09:22:03.762Z,58
2024-04-14T09:24:03.646Z,58
2024-04-14T09:26:03.663Z,58
2024-04-14T09:28:03.732Z,58
2024-04-14T09:30:03.655Z,58
2024-04-14T09:32:05.727Z,58
2024-04-14T09:34:03.723Z,58
2024-04-14T09:36:03.693Z,57
2024-04-14T09:38:03.724Z,58
2024-04-14T09:40:03.838Z,57
2024-04-14T09:42:03.724Z,56
2024-04-14T09:44:03.775Z,57
2024-04-14T09:46:03.800Z,58
2024-04-14T09:48:03.708Z,57
2024-04-14T09:50:03.734Z,56
2024-04-14T09:52:04.019Z,57
2024-04-14T09:54:03.718Z,57
2024-04-14T09:58:03.830Z,61
2024-04-14T10:00:03.919Z,61
2024-04-14T10:02:03.740Z,59
2024-04-14T10:06:03.724Z,58
2024-04-14T10:08:03.891Z,59
2024-04-14T10:10:03.780Z,58
2024-04-14T10:14:03.737Z,57
2024-04-14T10:16:03.827Z,59
2024-04-14T10:18:03.770Z,60
2024-04-14T10:20:03.689Z,60
2024-04-14T10:22:03.769Z,58
2024-04-14T10:24:03.738Z,56
2024-04-14T10:26:03.706Z,56
2024-04-14T10:28:03.756Z,56
2024-04-14T10:30:03.732Z,58
2024-04-14T10:32:03.823Z,59
2024-04-14T10:34:03.844Z,58
2024-04-14T10:36:03.700Z,60
2024-04-14T10:38:03.680Z,56
2024-04-14T10:40:04.120Z,60
2024-04-14T10:42:03.733Z,60
2024-04-14T10:44:03.730Z,57
2024-04-14T10:46:03.953Z,59
2024-04-14T10:48:03.784Z,56
2024-04-14T10:50:03.729Z,55
2024-04-14T10:52:03.909Z,54
2024-04-14T10:54:03.781Z,56
2024-04-14T10:56:03.724Z,56
2024-04-14T10:58:03.748Z,56
2024-04-14T11:00:03.868Z,55
2024-04-14T11:02:03.739Z,55
2024-04-14T11:04:03.965Z,55
2024-04-14T11:06:03.789Z,57
2024-04-14T11:08:03.875Z,54
2024-04-14T11:10:03.954Z,54
2024-04-14T11:12:03.798Z,54
2024-04-14T11:14:03.688Z,55
2024-04-14T11:16:03.943Z,54
2024-04-14T11:18:03.787Z,56
2024-04-14T11:20:03.704Z,55
2024-04-14T11:22:03.832Z,54
2024-04-14T11:24:03.716Z,55
2024-04-14T11:26:03.782Z,55
2024-04-14T11:28:03.813Z,55
2024-04-14T11:30:03.758Z,55
2024-04-14T11:32:03.977Z,57
2024-04-14T11:34:03.942Z,54
2024-04-14T11:36:03.739Z,55
2024-04-14T11:38:03.795Z,55
2024-04-14T11:40:04.182Z,55
2024-04-14T11:42:03.844Z,54
2024-04-14T11:44:03.718Z,54
2024-04-14T11:46:03.823Z,56
2024-04-14T11:48:03.799Z,57
2024-04-14T11:50:03.770Z,54
2024-04-14T11:52:03.755Z,54
2024-04-14T11:54:03.832Z,53
2024-04-14T11:56:03.756Z,55
2024-04-14T11:58:03.759Z,54
2024-04-14T12:00:03.735Z,55
2024-04-14T12:02:03.789Z,54
2024-04-14T12:04:03.800Z,54
2024-04-14T12:06:04.162Z,56
2024-04-14T12:08:03.904Z,56
2024-04-14T12:10:04.111Z,55
2024-04-14T12:12:03.763Z,54
2024-04-14T12:14:03.827Z,55
2024-04-14T12:16:03.927Z,55
2024-04-14T12:18:03.801Z,55
2024-04-14T12:22:03.780Z,54
2024-04-14T12:24:03.725Z,55
2024-04-14T12:26:03.900Z,54
2024-04-14T12:28:03.821Z,56
2024-04-14T12:30:03.755Z,56
2024-04-14T12:32:03.724Z,54
2024-04-14T12:34:03.877Z,55
2024-04-14T12:36:03.768Z,57
2024-04-14T12:38:03.774Z,53
2024-04-14T12:40:03.867Z,54
2024-04-14T12:42:03.749Z,55
2024-04-14T12:44:03.744Z,55
2024-04-14T12:46:03.860Z,53
2024-04-14T12:48:03.783Z,56
2024-04-14T12:50:03.693Z,55
2024-04-14T12:52:03.863Z,54
2024-04-14T12:54:03.702Z,53
2024-04-14T12:56:03.800Z,54
2024-04-14T12:58:04.002Z,54
2024-04-14T13:00:04.362Z,54
2024-04-14T13:02:03.812Z,55
2024-04-14T13:04:03.804Z,54
2024-04-14T13:06:03.730Z,55
2024-04-14T13:08:03.746Z,55
2024-04-14T13:10:03.831Z,55
2024-04-14T13:12:03.748Z,55
2024-04-14T13:14:03.752Z,54
2024-04-14T13:16:03.899Z,55
2024-04-14T13:18:04.682Z,54
2024-04-14T13:20:03.774Z,54
2024-04-14T13:24:03.780Z,54
2024-04-14T13:26:03.721Z,55
2024-04-14T13:28:03.761Z,54
2024-04-14T13:30:03.733Z,54
2024-04-14T13:32:03.754Z,54
2024-04-14T13:34:03.783Z,55
2024-04-14T13:36:03.784Z,54
2024-04-14T13:38:03.787Z,55
2024-04-14T13:40:03.951Z,55
2024-04-14T13:42:03.773Z,54
2024-04-14T13:44:03.819Z,55
2024-04-14T13:46:03.890Z,56
2024-04-14T13:48:03.806Z,56
2024-04-14T13:50:03.774Z,54
2024-04-14T13:52:03.843Z,54
2024-04-14T13:54:03.772Z,53
2024-04-14T13:56:03.911Z,53
2024-04-14T13:58:03.737Z,54
2024-04-14T14:00:03.707Z,53
2024-04-14T14:02:03.797Z,54
2024-04-14T14:04:04.040Z,54
2024-04-14T14:06:03.708Z,54
2024-04-14T14:12:03.831Z,54
2024-04-14T14:14:03.808Z,56
2024-04-14T14:16:03.960Z,55
2024-04-14T14:18:03.766Z,54
2024-04-14T14:20:04.004Z,56
2024-04-14T14:24:03.807Z,55
2024-04-14T14:26:03.831Z,55
2024-04-14T14:28:04.079Z,56
2024-04-14T14:30:03.720Z,54
2024-04-14T14:32:03.897Z,55
2024-04-14T14:34:03.828Z,52
2024-04-14T14:36:03.780Z,54
2024-04-14T14:40:03.918Z,53
2024-04-14T14:42:03.875Z,54
2024-04-14T14:44:03.803Z,54
2024-04-14T14:46:03.802Z,54
2024-04-14T14:48:03.976Z,53
2024-04-14T14:50:03.713Z,53
2024-04-14T14:54:03.756Z,54
2024-04-14T14:56:03.722Z,54
2024-04-14T14:58:03.848Z,56
2024-04-14T15:00:03.811Z,54
2024-04-14T15:02:03.723Z,54
2024-04-14T15:04:03.721Z,54
2024-04-14T15:06:03.785Z,55
2024-04-14T15:12:03.745Z,55
2024-04-14T15:14:03.738Z,55
2024-04-14T15:16:03.898Z,54
2024-04-14T15:18:03.818Z,55
2024-04-14T15:20:03.835Z,54
2024-04-14T15:24:03.713Z,55
2024-04-14T15:26:03.915Z,55
2024-04-14T15:28:07.707Z,55
2024-04-14T15:30:03.753Z,54
2024-04-14T15:36:03.782Z,56
2024-04-14T15:38:03.738Z,55
2024-04-14T15:42:03.705Z,56
2024-04-14T15:44:07.352Z,56
2024-04-14T15:46:03.768Z,56
2024-04-14T15:48:03.831Z,56
2024-04-14T15:50:03.721Z,56
2024-04-14T15:52:03.823Z,56
2024-04-14T15:54:03.775Z,56
2024-04-14T15:56:03.750Z,56
2024-04-14T15:58:03.877Z,56
2024-04-14T16:00:03.727Z,56
2024-04-14T16:02:03.790Z,56
2024-04-14T16:06:03.749Z,57
2024-04-14T16:08:03.785Z,56
2024-04-14T16:10:03.821Z,56
2024-04-14T16:12:03.769Z,57
2024-04-14T16:14:03.691Z,57
2024-04-14T16:16:03.757Z,57
2024-04-14T16:18:03.935Z,57
2024-04-14T16:20:03.730Z,57
2024-04-14T16:22:03.858Z,58
2024-04-14T16:26:03.924Z,57
2024-04-14T16:28:03.760Z,57
2024-04-14T16:30:03.869Z,58
2024-04-14T16:32:03.721Z,58
2024-04-14T16:34:03.839Z,58
2024-04-14T16:36:03.752Z,58
2024-04-14T16:40:03.734Z,58
2024-04-14T16:42:03.800Z,58
2024-04-14T16:44:03.742Z,58
2024-04-14T16:46:03.755Z,58
2024-04-14T16:48:03.833Z,58
2024-04-14T16:50:03.797Z,58
2024-04-14T16:52:03.816Z,58
2024-04-14T16:54:03.986Z,58
2024-04-14T16:58:03.874Z,59
2024-04-14T17:00:03.853Z,59
2024-04-14T17:02:03.798Z,59
2024-04-14T17:04:03.826Z,59
2024-04-14T17:06:03.752Z,59
2024-04-14T17:08:03.785Z,59
2024-04-14T17:10:03.816Z,59
2024-04-14T17:12:03.776Z,59
2024-04-14T17:14:03.746Z,60
2024-04-14T17:16:03.961Z,60
2024-04-14T17:18:03.755Z,60
2024-04-14T17:20:03.768Z,61
2024-04-14T17:22:03.758Z,60
2024-04-14T17:24:03.795Z,61
2024-04-14T17:26:03.828Z,61
2024-04-14T17:28:03.913Z,60
2024-04-14T17:30:03.789Z,60
2024-04-14T17:32:03.846Z,61
2024-04-14T17:34:03.800Z,61
2024-04-14T17:38:03.810Z,61
2024-04-14T17:40:05.817Z,61
2024-04-14T17:42:03.758Z,61
2024-04-14T17:46:03.744Z,61
2024-04-14T17:48:03.848Z,61
2024-04-14T17:50:03.799Z,61
2024-04-14T17:52:03.829Z,61
2024-04-14T17:54:03.808Z,62
2024-04-14T17:58:03.835Z,62
2024-04-14T18:02:03.783Z,63
2024-04-14T18:04:03.836Z,63
2024-04-14T18:06:03.799Z,63
2024-04-14T18:08:03.781Z,63
2024-04-14T18:12:03.805Z,64
2024-04-14T18:14:03.774Z,64
2024-04-14T18:16:03.867Z,64
2024-04-14T18:18:03.800Z,64
2024-04-14T18:20:03.777Z,64
2024-04-14T18:24:03.735Z,63
2024-04-14T18:26:03.697Z,63
2024-04-14T18:28:03.928Z,63
2024-04-14T18:30:04.038Z,64
2024-04-14T18:32:03.783Z,63
2024-04-14T18:34:03.918Z,63
2024-04-14T18:36:09.855Z,63
2024-04-14T18:38:03.840Z,63
2024-04-14T18:40:03.800Z,63
2024-04-14T18:44:03.973Z,62
2024-04-14T18:46:03.852Z,63
2024-04-14T18:48:03.804Z,63
2024-04-14T18:50:03.915Z,63
2024-04-14T18:52:03.729Z,63
2024-04-14T18:54:03.833Z,64
2024-04-14T18:56:03.752Z,64
2024-04-14T18:58:03.787Z,63
2024-04-14T19:00:03.796Z,63
2024-04-14T19:02:03.729Z,63
2024-04-14T19:04:03.778Z,64
2024-04-14T19:06:03.850Z,64
2024-04-14T19:08:03.742Z,64
2024-04-14T19:10:03.954Z,64
2024-04-14T19:12:03.807Z,65
2024-04-14T19:14:04.730Z,67
2024-04-14T19:16:03.904Z,67
2024-04-14T19:18:03.950Z,67
2024-04-14T19:20:03.770Z,67
2024-04-14T19:24:03.721Z,67
2024-04-14T19:26:03.717Z,67
2024-04-14T19:28:03.917Z,68
2024-04-14T19:30:03.957Z,68
2024-04-14T19:34:03.960Z,68
2024-04-14T19:36:03.855Z,67
2024-04-14T19:38:04.001Z,68
2024-04-14T19:40:03.944Z,68
2024-04-14T19:42:03.800Z,68
2024-04-14T19:44:03.724Z,69
2024-04-14T19:46:03.794Z,70
2024-04-14T19:48:03.804Z,69
2024-04-14T19:50:03.899Z,69
2024-04-14T19:52:03.727Z,70
2024-04-14T19:54:03.802Z,70
2024-04-14T19:56:03.880Z,70
2024-04-14T19:58:03.935Z,69
2024-04-14T20:02:04.085Z,69
2024-04-14T20:04:03.817Z,70
2024-04-14T20:06:03.702Z,70
2024-04-14T20:08:03.724Z,69
2024-04-14T20:10:03.839Z,70
2024-04-14T20:14:03.782Z,71
2024-04-14T20:16:03.814Z,70
2024-04-14T20:18:03.804Z,70
2024-04-14T20:20:03.752Z,70
2024-04-14T20:22:03.733Z,71
2024-04-14T20:24:03.760Z,70
2024-04-14T20:26:03.811Z,71
2024-04-14T20:30:03.760Z,70
2024-04-14T20:32:03.829Z,70
2024-04-14T20:34:03.766Z,70
2024-04-14T20:36:03.743Z,72
2024-04-14T20:38:03.733Z,71
2024-04-14T20:40:03.848Z,72
2024-04-14T20:42:03.971Z,70
2024-04-14T20:46:04.097Z,72
2024-04-14T20:48:03.856Z,73
2024-04-14T20:50:03.789Z,71
2024-04-14T20:52:03.740Z,71
2024-04-14T20:54:03.753Z,71
2024-04-14T20:56:03.855Z,70
2024-04-14T21:00:03.825Z,70
2024-04-14T21:02:03.943Z,70
2024-04-14T21:04:03.820Z,70
2024-04-14T21:06:03.814Z,70
2024-04-14T21:08:03.746Z,71
2024-04-14T21:10:03.933Z,71
2024-04-14T21:14:03.971Z,72
2024-04-14T21:16:04.048Z,71
2024-04-14T21:18:03.839Z,71
2024-04-14T21:20:03.960Z,71
2024-04-14T21:22:03.820Z,72
2024-04-14T21:24:03.725Z,70
2024-04-14T21:26:03.753Z,69
2024-04-14T21:28:03.858Z,69
2024-04-14T21:30:03.739Z,70
2024-04-14T21:32:04.034Z,70
2024-04-14T21:34:03.768Z,71
2024-04-14T21:38:03.866Z,72
2024-04-14T21:40:04.149Z,70
2024-04-14T21:42:03.833Z,70
2024-04-14T21:44:03.801Z,69
2024-04-14T21:46:03.871Z,69
2024-04-14T21:48:03.834Z,69
2024-04-14T21:50:03.755Z,72
2024-04-14T21:52:03.774Z,74
2024-04-14T21:54:03.814Z,73
2024-04-14T21:56:03.915Z,73
2024-04-14T21:58:03.962Z,76
2024-04-14T22:00:04.486Z,74
2024-04-14T22:02:04.176Z,74
2024-04-14T22:04:09.134Z,76
2024-04-14T22:06:03.958Z,76
2024-04-14T22:08:03.791Z,75
2024-04-14T22:10:03.968Z,74
2024-04-14T22:12:03.807Z,74
2024-04-14T22:14:03.806Z,74
2024-04-14T22:16:04.030Z,74
2024-04-14T22:18:03.936Z,76
2024-04-14T22:20:03.777Z,76
2024-04-14T22:22:03.823Z,76
2024-04-14T22:24:03.866Z,76
2024-04-14T22:26:04.003Z,75
2024-04-14T22:28:03.839Z,76
2024-04-14T22:30:03.768Z,76
2024-04-14T22:32:03.778Z,75
2024-04-14T22:34:03.776Z,75
2024-04-14T22:36:03.785Z,77
2024-04-14T22:38:03.767Z,76
2024-04-14T22:40:03.864Z,75
2024-04-14T22:42:03.817Z,74
2024-04-14T22:44:03.859Z,74
2024-04-14T22:46:04.124Z,74
2024-04-14T22:48:03.840Z,74
2024-04-14T22:50:03.747Z,74
2024-04-14T22:52:03.772Z,74
2024-04-14T22:54:03.779Z,74
2024-04-14T22:56:03.812Z,74
2024-04-14T22:58:03.844Z,75
2024-04-14T23:00:03.881Z,77
2024-04-14T23:02:03.787Z,77
2024-04-14T23:06:03.834Z,77
2024-04-14T23:08:03.894Z,77
2024-04-14T23:10:03.814Z,76
2024-04-14T23:12:03.760Z,76
2024-04-14T23:14:03.814Z,76
2024-04-14T23:16:03.872Z,77
2024-04-14T23:20:03.775Z,76
2024-04-14T23:22:03.914Z,76
2024-04-14T23:24:03.771Z,76
2024-04-14T23:28:03.922Z,77
2024-04-14T23:32:03.794Z,79
2024-04-14T23:34:03.996Z,80
2024-04-14T23:36:03.925Z,79
2024-04-14T23:38:03.847Z,79
2024-04-14T23:40:04.071Z,79
2024-04-14T23:42:04.033Z,78
2024-04-14T23:44:03.751Z,79
2024-04-14T23:46:04.072Z,78
2024-04-14T23:48:04.001Z,77
2024-04-14T23:52:03.881Z,77
2024-04-14T23:54:03.921Z,77
2024-04-14T23:56:03.900Z,77
2024-04-14T23:58:04.004Z,79
